x

Tanner Bank - 121nm West Of San Diego, Ca (46047) Wave Buoy

9:50am - Sun 25th Sep 2016 All times are PDT. -7 hours from GMT.

  • Sig Wave height 4.9ft
  • Swell Direction
  • Peak Period 16s
  • Average Period 8s
  • Wind
    9mph
  • Sea Temp 65°f
  • Air Temp 64°f
  • Sea Pressure 1016.3mb
  • Tanner Bank - 121nm West Of San Diego, Ca
  • Tanner Bank - 121nm West Of San Diego, Ca

More Historic Weather Station data

Upgrade to MSW Pro to gain access to the past 30 days of data for over 8000 Wavebouys and Weather Stations around the globe.

Join Pro

Comparision Forecast

View Surf forecast
   
Sun 09/25 9:50am 5ft 16s 8s 9
mph
1016.3mb 65f 64f
8:50am 4.5ft 16s 7s 9 11 mph 1016.1mb 65f 64f
7:50am 5ft 16s 8s 9 11 mph 1015.9mb 65f 64f
6:50am 4.5ft 15s 7s 11
mph
1015.1mb 65f 64f
5:50am 5ft 15s 8s 13 16 mph 1014.5mb 65f 64f
4:50am 5ft 16s 8s 9
mph
1014.5mb 66f 64f
3:50am 4.5ft 16s 8s 2 4 mph 1014.8mb 66f 64f
2:50am 5ft 16s 8s 4 7 mph 1014.9mb 66f 64f
1:50am 5ft 16s 8s 4 7 mph 1015.1mb 66f 65f
12:50am 5ft 16s 7s 4 7 mph 1015.4mb 66f 65f
Sat 09/24 11:50pm 4.5ft 16s 7s 9 11 mph 1015.3mb 66f 65f
10:50pm 5ft 16s 7s 7 9 mph 1015.2mb 66f 65f
9:50pm 5ft 16s 7s 9 11 mph 1015.1mb 66f 66f
8:50pm 6ft 16s 7s 7 9 mph 1015.1mb 66f 65f
7:50pm 6ft 16s 7s 7 9 mph 1014.6mb 66f 65f
6:50pm 6ft 16s 7s 11 13 mph 1014mb 66f 66f
5:50pm 6ft 16s 7s 9 11 mph 1014mb 67f 67f
4:50pm 6.5ft 16s 8s 7 9 mph 1014.5mb 67f 67f
3:50pm 6ft 8s 7s 4
mph
1015mb 67f 67f
2:50pm 6.5ft 17s 8s 7
mph
1015.3mb 67f 67f
1:50pm 7ft 8s 8s 4 7 mph 1015.5mb 67f 66f
12:50pm 6.5ft 16s 8s 4 7 mph 1016.2mb 66f 65f
11:50am 7ft 17s 8s 7
mph
1016.4mb 65f 65f
10:50am 7ft 17s 8s 4 9 mph 1016.5mb 65f 65f
9:50am 7ft 17s 7s 7 9 mph 1016mb 65f 64f
8:50am 7.5ft 17s 8s 4 7 mph 1015.7mb 64f 64f
7:50am 8ft 17s 7s 9 11 mph 1015.9mb 64f 64f
6:50am 7.5ft 9s 7s 7 9 mph 1015.2mb 64f 64f
5:50am 8ft 9s 7s 9 11 mph 1014.9mb 64f 64f
4:50am 8ft 8s 7s 11 13 mph 1014.4mb 64f 64f
3:50am 8.5ft 17s 7s 13 16 mph 1014.4mb 64f 64f
2:50am 8ft 17s 7s 16 18 mph 1014.4mb 64f 64f
1:50am 8ft 17s 7s 13 16 mph 1014.7mb 64f 64f
12:50am 8.5ft 17s 7s 16 20 mph 1014.9mb 64f 64f
Fri 09/23 11:50pm 8ft 17s 6s 20 25 mph 1014.7mb 64f 64f
10:50pm 9ft 17s 6s 22 27 mph 1014.7mb 65f 65f
9:50pm 8ft 8s 6s 22 27 mph 1014.6mb 65f 65f
8:50pm 9ft 17s 7s 22 27 mph 1014.6mb 65f 65f
7:50pm 10ft 17s 7s 22 29 mph 1014.5mb 65f 64f
6:50pm 9.5ft 8s 7s 20 25 mph 1015mb 65f 64f
5:50pm 9ft 9s 7s 22 27 mph 1014.8mb 65f 64f
4:50pm 9ft 17s 7s 22 27 mph 1014.9mb 65f 64f
3:50pm 9.5ft 9s 7s 22 25 mph 1015mb 65f 64f
2:50pm 8.5ft 9s 7s 20 25 mph 1015.4mb 65f 64f
1:50pm 9ft 9s 6s 22 27 mph 1015.9mb 65f 63f
12:50pm 9ft 8s 6s 25 29 mph 1016.1mb 64f 63f
11:50am 9ft 9s 6s 25 31 mph 1016.6mb 64f 63f
10:50am 8.5ft 8s 6s 22 29 mph 1016.6mb 64f 63f
9:50am 8.5ft 9s 6s 25 31 mph 1016.1mb 64f 63f
8:50am 8.5ft 9s 6s 20 25 mph 1016mb 64f 63f
7:50am 9.5ft 10s 7s 22 27 mph 1015.3mb 64f 63f
6:50am 10.5ft 9s 7s 25 29 mph 1014.8mb 64f 63f
5:50am 11ft 9s 7s 22 27 mph 1014.9mb 64f 62f
4:50am 11ft 8s 7s 25 29 mph 1014.4mb 64f 62f
3:50am 12ft 9s 7s 25 31 mph 1014.5mb 64f 62f
2:50am 11ft 9s 7s 27 31 mph 1014.6mb 64f 62f
1:50am 11ft 9s 7s 25 29 mph 1014.8mb 64f 62f
12:50am 12.5ft 10s 7s 27 31 mph 1014.7mb 64f 63f
Thu 09/22 11:50pm 12ft 8s 7s 25 31 mph 1015.2mb 64f 63f
10:50pm 11.5ft 9s 7s 27 34 mph 1014.6mb 64f 63f
9:50pm 10.5ft 9s 7s 29 34 mph 1014.4mb 64f 63f
8:50pm 10ft 9s 6s 27 34 mph 1014.1mb 64f 63f
7:50pm 10ft 9s 6s 27 31 mph 1014mb 65f 63f
6:50pm 10ft 10s 6s 27 34 mph 1014mb 65f 63f
5:50pm 11ft 9s 7s 29 34 mph 1013.9mb 65f 63f
4:50pm 11ft 10s 7s 29 36 mph 1013.8mb 65f 63f
3:50pm 12ft 10s 7s 31 38 mph 1014mb 65f 63f
2:50pm 12.5ft 10s 7s 29 36 mph 1014.5mb 65f 63f
1:50pm 12ft 11s 7s 27 34 mph 1015mb 65f 63f
12:50pm 11.5ft 10s 7s 29 36 mph 1015.3mb 65f 63f
11:50am 12.5ft 10s 7s 25 34 mph 1015.6mb 65f 63f
10:50am 12ft 11s 7s 27 34 mph 1015.5mb 65f 63f
9:50am 11.5ft 10s 7s 27 34 mph 1014.8mb 65f 63f
8:50am 12ft 9s 7s 29 34 mph 1014.3mb 65f 63f
7:50am 12ft 10s 7s 29 36 mph 1013.7mb 65f 63f
6:50am 11.5ft 10s  -  25 31 mph 1013.4mb 65f 63f
5:50am 10.5ft 10s 7s 27 31 mph 1013mb 65f 63f
4:50am 10ft 9s 7s 25 29 mph 1012.9mb 65f 63f
3:50am 10ft 9s 7s 25 29 mph 1012.9mb 65f 64f
2:50am 9.5ft 8s 7s 25 27 mph 1013mb 65f 64f
1:50am 9ft 8s 7s 22 27 mph 1012.8mb 65f 64f
12:50am 8ft 7s 7s 20 25 mph 1012.8mb 65f 64f
Wed 09/21 11:50pm 8ft 7s 6s 20 25 mph 1012.9mb 65f 64f
10:50pm 7.5ft 7s 6s 18 22 mph 1012.8mb 65f 64f
9:50pm 6.5ft 9s 6s 20 25 mph 1012.4mb 65f 64f
8:50pm 6ft 9s 6s 20 25 mph 1012.2mb 65f 64f
7:50pm 7ft 11s 6s 20 25 mph 1011.7mb 65f 64f
6:50pm 6.5ft 9s 6s 20 25 mph 1011.6mb 65f 64f